Time;durP1;ratioP1;P1;durP2;ratioP2;P2;SDS_P1;SDS_P2;PMS_P1;PMS_P2;Temp;Humidity;BMP_temperature;BMP_pressure;BME280_temperature;BME280_humidity;BME280_pressure;Samples;Min_cycle;Max_cycle;Signal;HPM_P1;HPM_P2
2022/05/03 00:02:27;;;;;;;;;;;;;;;;;;5031778;28;19916;-79
2022/05/03 00:05:14;;;;;;;;;;;;;;;;;;5019956;28;19913;-79
2022/05/03 00:08:00;;;;;;;;;;;;;;;;;;5033551;28;19913;-78
2022/05/03 00:10:47;;;;;;;;;;;;;;;;;;5056989;28;19909;-77
2022/05/03 00:13:33;;;;;;;;;;;;;;;;;;5036544;28;20669;-79
2022/05/03 00:16:19;;;;;;;;;;;;;;;;;;5056889;28;19927;-79
2022/05/03 00:19:06;;;;;;;;;;;;;;;;;;5048559;28;19909;-79
2022/05/03 00:21:52;;;;;;;;;;;;;;;;;;5035187;28;19920;-79
2022/05/03 00:24:39;;;;;;;;;;;;;;;;;;5042257;28;20016;-78
2022/05/03 00:27:26;;;;;;;;;;;;;;;;;;5030355;28;19913;-79
2022/05/03 00:30:12;;;;;;;;;;;;;;;;;;5046648;28;19909;-79
2022/05/03 00:32:59;;;;;;;;;;;;;;;;;;5037143;28;19932;-79
2022/05/03 00:35:45;;;;;;;;;;;;;;;;;;5034791;28;19924;-79
2022/05/03 00:38:34;;;;;;;;;;;;;;;;;;5048524;28;19920;-79
2022/05/03 00:41:21;;;;;;;;;;;;;;;;;;5049669;28;20314;-79
2022/05/03 00:44:55;;;;;;;;;;;;;;;;;;5043970;28;19923;-79
2022/05/03 00:47:14;;;;;;;;;;;;;;;;;;5041260;28;19924;-80
2022/05/03 00:50:00;;;;;;;;;;;;;;;;;;5046691;28;19935;-79
2022/05/03 00:52:47;;;;;;;;;;;;;;;;;;5056873;28;19920;-79
2022/05/03 00:55:33;;;;;;;;;;;;;;;;;;5036818;28;19924;-78
2022/05/03 00:58:20;;;;;;;;;;;;;;;;;;5049595;28;19920;-78
2022/05/03 01:01:06;;;;;;;;;;;;;;;;;;5041772;28;19916;-78
2022/05/03 01:03:53;;;;;;;;;;;;;;;;;;5044539;28;19916;-78
2022/05/03 01:06:39;;;;;;;;;;;;;;;;;;5036274;28;19915;-78
2022/05/03 01:09:26;;;;;;;;;;;;;;;;;;5047933;28;20285;-79
2022/05/03 01:12:12;;;;;;;;;;;;;;;;;;5048756;28;19909;-78
2022/05/03 01:14:59;;;;;;;;;;;;;;;;;;5060556;28;19913;-77
2022/05/03 01:17:45;;;;;;;;;;;;;;;;;;5051136;28;19920;-78
2022/05/03 01:20:33;;;;;;;;;;;;;;;;;;5043578;28;19924;-77
2022/05/03 01:23:19;;;;;;;;;;;;;;;;;;5046524;28;19916;-77
2022/05/03 01:26:06;;;;;;;;;;;;;;;;;;5049333;28;19916;-79
2022/05/03 01:28:52;;;;;;;;;;;;;;;;;;5047043;28;20384;-79
2022/05/03 01:31:39;;;;;;;;;;;;;;;;;;5052452;28;19913;-79
2022/05/03 01:34:25;;;;;;;;;;;;;;;;;;5053981;28;20300;-78
2022/05/03 01:37:12;;;;;;;;;;;;;;;;;;5047090;28;20353;-78
2022/05/03 01:39:58;;;;;;;;;;;;;;;;;;5047542;28;19916;-79
2022/05/03 01:42:44;;;;;;;;;;;;;;;;;;5039988;28;20516;-79
2022/05/03 01:45:31;;;;;;;;;;;;;;;;;;5046880;28;20297;-78
2022/05/03 01:48:18;;;;;;;;;;;;;;;;;;5053859;28;20372;-79
2022/05/03 01:51:05;;;;;;;;;;;;;;;;;;5049355;28;19909;-78
2022/05/03 01:53:51;;;;;;;;;;;;;;;;;;5048883;28;20406;-79
2022/05/03 01:56:38;;;;;;;;;;;;;;;;;;5051440;28;19924;-79
2022/05/03 01:59:24;;;;;;;;;;;;;;;;;;5038079;28;19919;-79
2022/05/03 02:02:11;;;;;;;;;;;;;;;;;;5041239;28;19913;-79
2022/05/03 02:04:57;;;;;;;;;;;;;;;;;;5052374;28;20381;-79
2022/05/03 02:07:44;;;;;;;;;;;;;;;;;;5049113;28;19924;-80
2022/05/03 02:10:30;;;;;;;;;;;;;;;;;;5039140;28;20288;-79
2022/05/03 02:13:16;;;;;;;;;;;;;;;;;;5035299;28;19916;-79
2022/05/03 02:16:03;;;;;;;;;;;;;;;;;;5044939;28;19928;-79
2022/05/03 02:18:49;;;;;;;;;;;;;;;;;;5046893;28;20335;-79
2022/05/03 02:21:36;;;;;;;;;;;;;;;;;;5050288;28;19909;-79
2022/05/03 02:24:22;;;;;;;;;;;;;;;;;;5039031;28;19909;-80
2022/05/03 02:27:09;;;;;;;;;;;;;;;;;;5045000;28;19919;-78
2022/05/03 02:29:55;;;;;;;;;;;;;;;;;;5044251;28;20341;-79
2022/05/03 02:32:42;;;;;;;;;;;;;;;;;;5050229;28;19921;-79
2022/05/03 02:35:28;;;;;;;;;;;;;;;;;;5037144;28;20010;-79
2022/05/03 02:38:15;;;;;;;;;;;;;;;;;;5046962;28;20254;-79
2022/05/03 02:41:02;;;;;;;;;;;;;;;;;;5047497;28;19912;-79
2022/05/03 02:43:49;;;;;;;;;;;;;;;;;;5048969;28;19946;-78
2022/05/03 02:46:35;;;;;;;;;;;;;;;;;;5059764;28;20369;-78
2022/05/03 02:49:22;;;;;;;;;;;;;;;;;;5041302;28;19924;-79
2022/05/03 02:52:08;;;;;;;;;;;;;;;;;;5047633;28;19916;-79
2022/05/03 02:54:55;;;;;;;;;;;;;;;;;;5036181;28;19923;-79
2022/05/03 02:57:41;;;;;;;;;;;;;;;;;;5049598;28;19921;-79
2022/05/03 03:03:36;;;;;;;;;;;;;;;;;;5049970;28;19946;-79
2022/05/03 03:06:22;;;;;;;;;;;;;;;;;;5043681;28;19909;-78
2022/05/03 03:09:09;;;;;;;;;;;;;;;;;;5043424;28;19913;-79
2022/05/03 03:11:55;;;;;;;;;;;;;;;;;;5049737;28;19935;-78
2022/05/03 03:14:42;;;;;;;;;;;;;;;;;;5043611;28;20287;-76
2022/05/03 03:17:28;;;;;;;;;;;;;;;;;;5038438;28;19925;-77
2022/05/03 03:20:15;;;;;;;;;;;;;;;;;;5042244;28;20368;-77
2022/05/03 03:23:01;;;;;;;;;;;;;;;;;;5037040;28;19927;-77
2022/05/03 03:25:48;;;;;;;;;;;;;;;;;;5032555;28;19916;-78
2022/05/03 03:28:34;;;;;;;;;;;;;;;;;;5033022;28;19910;-77
2022/05/03 03:31:21;;;;;;;;;;;;;;;;;;5034801;28;19909;-78
2022/05/03 03:34:10;;;;;;;;;;;;;;;;;;5047685;28;19920;-80
2022/05/03 03:37:01;;;;;;;;;;;;;;;;;;5038713;28;19921;-77
2022/05/03 03:39:47;;;;;;;;;;;;;;;;;;5033284;28;19920;-78
2022/05/03 03:42:34;;;;;;;;;;;;;;;;;;5036282;28;19921;-78
2022/05/03 03:45:21;;;;;;;;;;;;;;;;;;5040963;28;20288;-77
2022/05/03 03:48:08;;;;;;;;;;;;;;;;;;5039157;28;20361;-78
2022/05/03 03:50:55;;;;;;;;;;;;;;;;;;5039326;28;19944;-78
2022/05/03 03:53:41;;;;;;;;;;;;;;;;;;5036568;28;19917;-78
2022/05/03 03:56:28;;;;;;;;;;;;;;;;;;5037159;28;19918;-79
2022/05/03 03:59:14;;;;;;;;;;;;;;;;;;5034985;28;19909;-78
2022/05/03 04:02:01;;;;;;;;;;;;;;;;;;5039522;28;19959;-78
2022/05/03 04:04:47;;;;;;;;;;;;;;;;;;5041970;28;19921;-79
2022/05/03 04:07:34;;;;;;;;;;;;;;;;;;5041076;28;19975;-79
2022/05/03 04:10:21;;;;;;;;;;;;;;;;;;5036218;28;19909;-75
2022/05/03 04:13:07;;;;;;;;;;;;;;;;;;5040550;28;19920;-76
2022/05/03 04:15:54;;;;;;;;;;;;;;;;;;5039430;28;19917;-76
2022/05/03 04:18:46;;;;;;;;;;;;;;;;;;5038154;28;19917;-75
2022/05/03 04:21:32;;;;;;;;;;;;;;;;;;5044148;28;19912;-76
2022/05/03 04:24:19;;;;;;;;;;;;;;;;;;5040273;28;20434;-75
2022/05/03 04:27:06;;;;;;;;;;;;;;;;;;5040411;28;19909;-74
2022/05/03 04:29:53;;;;;;;;;;;;;;;;;;5037778;28;19924;-76
2022/05/03 04:32:39;;;;;;;;;;;;;;;;;;5037592;28;19917;-75
2022/05/03 04:35:26;;;;;;;;;;;;;;;;;;5035510;28;20380;-75
2022/05/03 04:38:12;;;;;;;;;;;;;;;;;;5042849;28;19909;-76
2022/05/03 04:40:59;;;;;;;;;;;;;;;;;;5035144;28;20481;-76
2022/05/03 04:43:45;;;;;;;;;;;;;;;;;;5039054;28;19916;-75
2022/05/03 04:46:32;;;;;;;;;;;;;;;;;;5042042;28;19921;-76
2022/05/03 04:49:18;;;;;;;;;;;;;;;;;;5047456;28;19939;-76
2022/05/03 04:52:05;;;;;;;;;;;;;;;;;;5042792;28;19909;-77
2022/05/03 04:54:51;;;;;;;;;;;;;;;;;;5053528;28;20157;-77
2022/05/03 04:57:38;;;;;;;;;;;;;;;;;;5051054;28;19924;-75
2022/05/03 05:00:24;;;;;;;;;;;;;;;;;;5038790;28;20528;-77
2022/05/03 05:03:11;;;;;;;;;;;;;;;;;;5042831;28;19919;-75
2022/05/03 05:05:57;;;;;;;;;;;;;;;;;;5038214;28;19913;-76
2022/05/03 05:08:43;;;;;;;;;;;;;;;;;;5053723;28;19913;-78
2022/05/03 05:11:30;;;;;;;;;;;;;;;;;;5041722;28;19913;-79
2022/05/03 05:14:20;;;;;;;;;;;;;;;;;;5053744;28;19932;-78
2022/05/03 05:17:06;;;;;;;;;;;;;;;;;;5051745;28;19917;-78
2022/05/03 05:19:53;;;;;;;;;;;;;;;;;;5052405;28;19921;-78
2022/05/03 05:22:41;;;;;;;;;;;;;;;;;;5050682;28;19916;-78
2022/05/03 05:25:27;;;;;;;;;;;;;;;;;;5068626;28;19919;-78
2022/05/03 05:28:14;;;;;;;;;;;;;;;;;;5053471;28;19909;-78
2022/05/03 05:31:01;;;;;;;;;;;;;;;;;;5065088;28;19909;-78
2022/05/03 05:33:47;;;;;;;;;;;;;;;;;;5064861;28;19928;-78
2022/05/03 05:36:34;;;;;;;;;;;;;;;;;;5054849;28;20376;-79
2022/05/03 05:39:22;;;;;;;;;;;;;;;;;;5050350;28;20735;-77
2022/05/03 05:42:09;;;;;;;;;;;;;;;;;;5048639;28;19924;-78
2022/05/03 05:44:55;;;;;;;;;;;;;;;;;;5035671;28;19913;-78
2022/05/03 05:47:42;;;;;;;;;;;;;;;;;;5056593;28;19940;-78
2022/05/03 05:50:32;;;;;;;;;;;;;;;;;;5045455;28;19992;-78
2022/05/03 05:53:33;;;;;;;;;;;;;;;;;;5048494;28;19916;-78
2022/05/03 05:56:20;;;;;;;;;;;;;;;;;;5041043;28;19917;-78
2022/05/03 05:59:06;;;;;;;;;;;;;;;;;;5034548;28;19908;-79
2022/05/03 06:01:53;;;;;;;;;;;;;;;;;;5032330;28;19909;-78
2022/05/03 06:04:39;;;;;;;;;;;;;;;;;;5039026;28;20317;-78
2022/05/03 06:07:26;;;;;;;;;;;;;;;;;;5039869;28;19921;-79
2022/05/03 06:10:13;;;;;;;;;;;;;;;;;;5036903;28;20526;-79
2022/05/03 06:13:02;;;;;;;;;;;;;;;;;;5040590;28;19913;-79
2022/05/03 06:15:50;;;;;;;;;;;;;;;;;;5042691;28;19929;-78
2022/05/03 06:18:37;;;;;;;;;;;;;;;;;;5032573;28;19923;-78
2022/05/03 06:21:23;;;;;;;;;;;;;;;;;;5037300;28;19913;-77
2022/05/03 06:24:10;;;;;;;;;;;;;;;;;;5036955;28;19913;-78
2022/05/03 06:26:56;;;;;;;;;;;;;;;;;;5052497;28;19913;-78
2022/05/03 06:29:43;;;;;;;;;;;;;;;;;;5030932;28;19913;-77
2022/05/03 06:32:29;;;;;;;;;;;;;;;;;;5035760;28;19916;-77
2022/05/03 06:35:16;;;;;;;;;;;;;;;;;;5048945;28;19919;-78
2022/05/03 06:38:02;;;;;;;;;;;;;;;;;;5036392;28;19931;-77
2022/05/03 06:40:49;;;;;;;;;;;;;;;;;;5038309;28;19969;-79
2022/05/03 06:43:35;;;;;;;;;;;;;;;;;;5038785;28;20377;-78
2022/05/03 06:46:22;;;;;;;;;;;;;;;;;;5032983;28;19924;-77
2022/05/03 06:49:10;;;;;;;;;;;;;;;;;;5039565;28;19923;-77
2022/05/03 06:51:57;;;;;;;;;;;;;;;;;;5038621;28;20246;-78
2022/05/03 06:54:43;;;;;;;;;;;;;;;;;;5036817;28;19917;-77
2022/05/03 06:57:30;;;;;;;;;;;;;;;;;;5036892;28;19935;-78
2022/05/03 07:00:17;;;;;;;;;;;;;;;;;;5035872;28;20381;-78
2022/05/03 07:03:03;;;;;;;;;;;;;;;;;;5043107;28;19917;-78
2022/05/03 07:05:50;;;;;;;;;;;;;;;;;;5038819;28;19921;-78
2022/05/03 07:08:36;;;;;;;;;;;;;;;;;;5033929;28;19917;-76
2022/05/03 07:11:23;;;;;;;;;;;;;;;;;;5030191;28;19920;-78
2022/05/03 07:14:09;;;;;;;;;;;;;;;;;;5058222;28;19919;-78
2022/05/03 07:16:56;;;;;;;;;;;;;;;;;;5033225;28;19939;-78
2022/05/03 07:22:48;;;;;;;;;;;;;;;;;;5051905;28;19936;-77
2022/05/03 07:25:35;;;;;;;;;;;;;;;;;;5061046;28;19917;-77
2022/05/03 07:28:21;;;;;;;;;;;;;;;;;;5052302;28;19913;-78
2022/05/03 07:31:11;;;;;;;;;;;;;;;;;;5054540;28;19913;-76
2022/05/03 07:33:58;;;;;;;;;;;;;;;;;;5033555;28;19943;-77
2022/05/03 07:36:44;;;;;;;;;;;;;;;;;;5052003;28;20591;-77
2022/05/03 07:39:31;;;;;;;;;;;;;;;;;;5035331;28;19919;-80
2022/05/03 07:42:17;;;;;;;;;;;;;;;;;;5044901;28;19932;-79
2022/05/03 07:45:04;;;;;;;;;;;;;;;;;;5037486;28;19928;-82
2022/05/03 07:47:50;;;;;;;;;;;;;;;;;;5036005;28;19924;-81
2022/05/03 07:50:37;;;;;;;;;;;;;;;;;;5040042;28;20343;-80
2022/05/03 07:53:23;;;;;;;;;;;;;;;;;;5056602;28;19923;-82
2022/05/03 07:56:10;;;;;;;;;;;;;;;;;;5052569;28;19916;-83
2022/05/03 07:58:56;;;;;;;;;;;;;;;;;;5033564;28;20705;-83
2022/05/03 08:01:43;;;;;;;;;;;;;;;;;;5049092;28;19913;-83
2022/05/03 08:04:29;;;;;;;;;;;;;;;;;;5046938;28;20361;-82
2022/05/03 08:07:16;;;;;;;;;;;;;;;;;;5046675;28;19909;-81
2022/05/03 08:10:02;;;;;;;;;;;;;;;;;;5049925;28;19928;-81
2022/05/03 08:12:52;;;;;;;;;;;;;;;;;;5050541;28;19917;-80
2022/05/03 08:15:39;;;;;;;;;;;;;;;;;;5042458;28;19913;-80
2022/05/03 08:18:25;;;;;;;;;;;;;;;;;;5035437;28;19917;-81
2022/05/03 08:21:12;;;;;;;;;;;;;;;;;;5036511;28;19952;-80
2022/05/03 08:23:58;;;;;;;;;;;;;;;;;;5037385;28;20348;-80
2022/05/03 08:26:45;;;;;;;;;;;;;;;;;;5050246;28;20518;-80
2022/05/03 08:29:31;;;;;;;;;;;;;;;;;;5034929;28;20292;-80
2022/05/03 08:32:18;;;;;;;;;;;;;;;;;;5035389;28;19917;-80
2022/05/03 08:35:04;;;;;;;;;;;;;;;;;;5045765;28;19927;-79
2022/05/03 08:44:01;;;;;;;;;;;;;;;;;;5042698;28;19913;-80
2022/05/03 08:46:48;;;;;;;;;;;;;;;;;;5048347;28;20377;-80
2022/05/03 08:49:34;;;;;;;;;;;;;;;;;;5049254;28;19913;-80
2022/05/03 08:52:21;;;;;;;;;;;;;;;;;;5047809;28;20384;-80
2022/05/03 08:55:07;;;;;;;;;;;;;;;;;;5033616;28;19915;-81
2022/05/03 08:57:54;;;;;;;;;;;;;;;;;;5037321;28;19920;-81
2022/05/03 09:00:42;;;;;;;;;;;;;;;;;;5046666;28;19927;-80
2022/05/03 09:03:29;;;;;;;;;;;;;;;;;;5030238;28;19913;-81
2022/05/03 09:06:15;;;;;;;;;;;;;;;;;;5031869;28;19980;-81
2022/05/03 09:09:04;;;;;;;;;;;;;;;;;;5033841;28;19913;-81
2022/05/03 09:11:51;;;;;;;;;;;;;;;;;;5048981;28;20325;-80
2022/05/03 09:14:37;;;;;;;;;;;;;;;;;;5039544;28;19921;-81
2022/05/03 09:17:24;;;;;;;;;;;;;;;;;;5053414;28;20312;-81
2022/05/03 09:23:46;;;;;;;;;;;;;;;;;;5038537;28;19916;-81
2022/05/03 09:26:22;;;;;;;;;;;;;;;;;;5038754;28;19924;-80
2022/05/03 09:29:09;;;;;;;;;;;;;;;;;;5039585;28;19912;-80
2022/05/03 09:31:55;;;;;;;;;;;;;;;;;;5048358;28;19916;-83
2022/05/03 09:34:42;;;;;;;;;;;;;;;;;;5041393;28;19928;-81
2022/05/03 09:37:37;;;;;;;;;;;;;;;;;;5038671;28;19967;-82
2022/05/03 09:40:25;;;;;;;;;;;;;;;;;;5042219;28;20320;-81
2022/05/03 09:43:12;;;;;;;;;;;;;;;;;;5037155;28;19913;-79
2022/05/03 09:45:58;;;;;;;;;;;;;;;;;;5057711;28;19928;-80
2022/05/03 09:48:45;;;;;;;;;;;;;;;;;;5040220;28;19921;-80
2022/05/03 09:51:31;;;;;;;;;;;;;;;;;;5044641;28;19924;-80
2022/05/03 09:54:18;;;;;;;;;;;;;;;;;;5035496;28;19916;-81
2022/05/03 09:57:04;;;;;;;;;;;;;;;;;;5047723;28;19925;-82
2022/05/03 09:59:50;;;;;;;;;;;;;;;;;;5052466;28;19917;-82
2022/05/03 10:02:37;;;;;;;;;;;;;;;;;;5040387;28;19909;-81
2022/05/03 10:05:23;;;;;;;;;;;;;;;;;;5042223;28;19944;-82
2022/05/03 10:08:11;;;;;;;;;;;;;;;;;;5038688;28;19909;-82
2022/05/03 10:10:58;;;;;;;;;;;;;;;;;;5052316;28;19913;-80
2022/05/03 10:13:44;;;;;;;;;;;;;;;;;;5043118;28;19919;-81
2022/05/03 10:22:41;;;;;;;;;;;;;;;;;;5042029;28;19939;-81
2022/05/03 10:25:28;;;;;;;;;;;;;;;;;;5037234;28;19927;-80
2022/05/03 10:28:14;;;;;;;;;;;;;;;;;;5038067;28;19914;-81
2022/05/03 10:31:04;;;;;;;;;;;;;;;;;;5047976;28;19916;-82
2022/05/03 10:33:50;;;;;;;;;;;;;;;;;;5055688;28;19921;-82
2022/05/03 10:36:37;;;;;;;;;;;;;;;;;;5040631;28;19931;-81
2022/05/03 10:39:23;;;;;;;;;;;;;;;;;;5033003;28;20267;-81
2022/05/03 10:42:10;;;;;;;;;;;;;;;;;;5032919;28;19974;-82
2022/05/03 10:44:56;;;;;;;;;;;;;;;;;;5037100;28;20431;-81
2022/05/03 10:47:42;;;;;;;;;;;;;;;;;;5033650;28;20369;-81
2022/05/03 10:50:29;;;;;;;;;;;;;;;;;;5048003;28;19913;-81
2022/05/03 10:53:15;;;;;;;;;;;;;;;;;;5037581;28;19925;-81
2022/05/03 10:56:02;;;;;;;;;;;;;;;;;;5039290;28;19909;-82
2022/05/03 10:58:48;;;;;;;;;;;;;;;;;;5042089;28;19923;-81
2022/05/03 11:01:35;;;;;;;;;;;;;;;;;;5032407;28;19909;-81
2022/05/03 11:04:21;;;;;;;;;;;;;;;;;;5034652;28;19909;-81
2022/05/03 11:07:10;;;;;;;;;;;;;;;;;;5029697;28;19921;-81
2022/05/03 11:09:56;;;;;;;;;;;;;;;;;;5039211;28;19913;-81
2022/05/03 11:12:43;;;;;;;;;;;;;;;;;;5035818;28;19909;-80
2022/05/03 11:15:29;;;;;;;;;;;;;;;;;;5038431;28;19913;-80
2022/05/03 11:18:16;;;;;;;;;;;;;;;;;;5037182;28;19936;-81
2022/05/03 11:21:02;;;;;;;;;;;;;;;;;;5041779;28;19920;-80
2022/05/03 11:23:48;;;;;;;;;;;;;;;;;;5034907;28;19917;-78
2022/05/03 11:26:35;;;;;;;;;;;;;;;;;;5033371;28;19932;-80
2022/05/03 11:29:21;;;;;;;;;;;;;;;;;;5046037;28;19908;-80
2022/05/03 11:32:08;;;;;;;;;;;;;;;;;;5044790;28;19909;-80
2022/05/03 11:34:54;;;;;;;;;;;;;;;;;;5048580;28;19947;-80
2022/05/03 11:37:41;;;;;;;;;;;;;;;;;;5035295;28;19921;-80
2022/05/03 11:40:27;;;;;;;;;;;;;;;;;;5035537;28;19913;-80
2022/05/03 11:43:15;;;;;;;;;;;;;;;;;;5037512;28;19917;-79
2022/05/03 11:46:02;;;;;;;;;;;;;;;;;;5033982;28;19913;-79
2022/05/03 11:48:48;;;;;;;;;;;;;;;;;;5036646;28;19935;-80
2022/05/03 11:57:45;;;;;;;;;;;;;;;;;;5042038;28;20293;-80
2022/05/03 12:00:32;;;;;;;;;;;;;;;;;;5059260;28;19909;-79
2022/05/03 12:03:18;;;;;;;;;;;;;;;;;;5045391;28;20377;-79
2022/05/03 12:06:05;;;;;;;;;;;;;;;;;;5041692;28;19960;-78
2022/05/03 12:08:51;;;;;;;;;;;;;;;;;;5050207;28;20320;-78
2022/05/03 12:14:42;;;;;;;;;;;;;;;;;;5033917;28;19932;-78
2022/05/03 12:17:29;;;;;;;;;;;;;;;;;;5033655;28;19925;-79
2022/05/03 12:20:15;;;;;;;;;;;;;;;;;;5032556;28;19915;-78
2022/05/03 12:23:03;;;;;;;;;;;;;;;;;;5035132;28;19909;-78
2022/05/03 12:25:49;;;;;;;;;;;;;;;;;;5046027;28;20569;-78
2022/05/03 12:28:38;;;;;;;;;;;;;;;;;;5029839;28;19909;-78
2022/05/03 12:31:24;;;;;;;;;;;;;;;;;;5044114;28;19917;-78
2022/05/03 12:34:14;;;;;;;;;;;;;;;;;;5047780;28;19920;-78
2022/05/03 12:37:00;;;;;;;;;;;;;;;;;;5046374;28;19925;-79
2022/05/03 12:39:47;;;;;;;;;;;;;;;;;;5042518;28;20365;-79
2022/05/03 12:42:33;;;;;;;;;;;;;;;;;;5049991;28;19917;-79
2022/05/03 12:45:20;;;;;;;;;;;;;;;;;;5032799;28;19921;-79
2022/05/03 12:48:06;;;;;;;;;;;;;;;;;;5027629;28;19920;-79
2022/05/03 12:50:53;;;;;;;;;;;;;;;;;;5039531;28;19917;-78
2022/05/03 12:53:40;;;;;;;;;;;;;;;;;;5054069;28;20364;-78
2022/05/03 12:59:31;;;;;;;;;;;;;;;;;;5037698;28;19923;-80
2022/05/03 13:02:18;;;;;;;;;;;;;;;;;;5033366;28;19912;-79
2022/05/03 13:05:04;;;;;;;;;;;;;;;;;;5046513;28;19917;-79
2022/05/03 13:07:51;;;;;;;;;;;;;;;;;;5046330;28;19920;-78
2022/05/03 13:10:37;;;;;;;;;;;;;;;;;;5056905;28;20280;-78
2022/05/03 13:13:24;;;;;;;;;;;;;;;;;;5053320;28;19925;-78
2022/05/03 13:16:10;;;;;;;;;;;;;;;;;;5041135;28;19936;-78
2022/05/03 13:18:57;;;;;;;;;;;;;;;;;;5046658;28;20219;-79
2022/05/03 13:21:44;;;;;;;;;;;;;;;;;;5051146;28;20287;-79
2022/05/03 13:24:30;;;;;;;;;;;;;;;;;;5063238;28;19908;-79
2022/05/03 13:27:17;;;;;;;;;;;;;;;;;;5037938;28;19916;-79
2022/05/03 13:30:03;;;;;;;;;;;;;;;;;;5051950;28;19916;-78
2022/05/03 13:32:50;;;;;;;;;;;;;;;;;;5052110;28;19917;-79
2022/05/03 13:42:00;;;;;;;;;;;;;;;;;;5022173;28;19917;-79
2022/05/03 13:44:48;;;;;;;;;;;;;;;;;;5053777;28;20475;-78
2022/05/03 13:47:34;;;;;;;;;;;;;;;;;;5053035;28;20380;-79
2022/05/03 13:50:21;;;;;;;;;;;;;;;;;;5052749;28;20292;-79
2022/05/03 13:53:09;;;;;;;;;;;;;;;;;;5044062;28;19920;-79
2022/05/03 13:55:55;;;;;;;;;;;;;;;;;;5047251;28;19909;-79
2022/05/03 13:58:42;;;;;;;;;;;;;;;;;;5035867;28;20473;-79
2022/05/03 14:01:28;;;;;;;;;;;;;;;;;;5058615;28;19977;-79
2022/05/03 14:04:14;;;;;;;;;;;;;;;;;;5044724;28;20376;-79
2022/05/03 14:07:01;;;;;;;;;;;;;;;;;;5051276;28;19912;-79
2022/05/03 14:09:48;;;;;;;;;;;;;;;;;;5042931;28;19916;-79
2022/05/03 14:12:34;;;;;;;;;;;;;;;;;;5037400;28;20380;-80
2022/05/03 14:15:21;;;;;;;;;;;;;;;;;;5050949;28;19912;-80
2022/05/03 14:18:07;;;;;;;;;;;;;;;;;;5054975;28;20304;-81
2022/05/03 14:20:54;;;;;;;;;;;;;;;;;;5049893;28;20069;-81
2022/05/03 14:23:40;;;;;;;;;;;;;;;;;;5050267;28;19923;-81
2022/05/03 14:26:27;;;;;;;;;;;;;;;;;;5051654;28;19909;-83
2022/05/03 14:29:13;;;;;;;;;;;;;;;;;;5060952;28;19916;-84
2022/05/03 14:32:00;;;;;;;;;;;;;;;;;;5047651;28;19909;-81
2022/05/03 14:34:46;;;;;;;;;;;;;;;;;;5045657;28;19955;-86
2022/05/03 14:37:33;;;;;;;;;;;;;;;;;;5038071;28;19931;-87
2022/05/03 14:40:19;;;;;;;;;;;;;;;;;;5038125;28;20325;-87
2022/05/03 14:43:06;;;;;;;;;;;;;;;;;;5040864;28;19909;-84
2022/05/03 14:45:53;;;;;;;;;;;;;;;;;;5038584;28;19912;-82
2022/05/03 14:48:40;;;;;;;;;;;;;;;;;;5042611;28;20496;-84
2022/05/03 14:51:27;;;;;;;;;;;;;;;;;;5037320;28;19913;-82
2022/05/03 14:54:13;;;;;;;;;;;;;;;;;;5048185;28;20542;-83
2022/05/03 15:06:33;;;;;;;;;;;;;;;;;;;;;
2022/05/03 15:09:25;;;;;;;;;;;;;;;;;;5050487;28;19919;-82
2022/05/03 15:12:14;;;;;;;;;;;;;;;;;;5056653;28;19915;-83
2022/05/03 15:15:11;;;;;;;;;;;;;;;;;;5059021;28;19920;-84
2022/05/03 15:27:19;;;;;;;;;;;;;;;;;;4984344;28;19979;-84
2022/05/03 15:30:08;;;;;;;;;;;;;;;;;;4995591;28;19937;-83
2022/05/03 15:33:36;;;;;;;;;;;;;;;;;;5004360;28;19928;-85
2022/05/03 15:36:21;;;;;;;;;;;;;;;;;;4994171;28;20378;-84
2022/05/03 15:39:13;;;;;;;;;;;;;;;;;;5000813;28;19923;-84
2022/05/03 15:42:03;;;;;;;;;;;;;;;;;;4992438;28;20045;-82
2022/05/03 15:45:05;;;;;;;;;;;;;;;;;;5002495;28;19932;-84
2022/05/03 15:47:52;;;;;;;;;;;;;;;;;;5017506;28;19913;-84
2022/05/03 15:50:38;;;;;;;;;;;;;;;;;;5043043;28;19909;-84
2022/05/03 15:53:25;;;;;;;;;;;;;;;;;;5050313;28;20357;-84
2022/05/03 15:56:11;;;;;;;;;;;;;;;;;;5041554;28;19909;-86
2022/05/03 15:59:14;;;;;;;;;;;;;;;;;;5045850;28;19917;-83
2022/05/03 16:05:21;;;;;;;;;;;;;;;;;;5040751;28;19944;-88
2022/05/03 16:08:08;;;;;;;;;;;;;;;;;;5055115;28;19913;-84
2022/05/03 16:10:54;;;;;;;;;;;;;;;;;;5042850;28;19916;-85
2022/05/03 16:13:41;;;;;;;;;;;;;;;;;;5040829;28;19921;-87
2022/05/03 16:16:27;;;;;;;;;;;;;;;;;;5041747;28;19913;-85
2022/05/03 16:19:19;;;;;;;;;;;;;;;;;;5036690;28;19932;-85
2022/05/03 16:22:07;;;;;;;;;;;;;;;;;;5035039;28;19913;-86
2022/05/03 16:24:53;;;;;;;;;;;;;;;;;;5037546;28;19923;-83
2022/05/03 16:27:40;;;;;;;;;;;;;;;;;;5045032;28;19917;-84
2022/05/03 16:30:26;;;;;;;;;;;;;;;;;;5048971;28;19920;-84
2022/05/03 16:33:12;;;;;;;;;;;;;;;;;;5053984;28;19935;-85
2022/05/03 16:42:08;;;;;;;;;;;;;;;;;;5052908;28;20479;-85
2022/05/03 16:42:11;;;;;;;;;;;;;;;;;;5049733;28;19923;-86
2022/05/03 16:44:57;;;;;;;;;;;;;;;;;;5040260;28;20277;-85
2022/05/03 16:47:44;;;;;;;;;;;;;;;;;;5041521;28;19923;-84
2022/05/03 16:50:31;;;;;;;;;;;;;;;;;;5043404;28;19913;-84
2022/05/03 16:53:17;;;;;;;;;;;;;;;;;;5045964;28;19909;-85
2022/05/03 16:56:03;;;;;;;;;;;;;;;;;;5055125;28;19909;-87
2022/05/03 16:58:51;;;;;;;;;;;;;;;;;;5054174;28;19921;-86
2022/05/03 17:01:38;;;;;;;;;;;;;;;;;;5060257;28;19909;-82
2022/05/03 17:04:24;;;;;;;;;;;;;;;;;;5036378;28;19928;-84
2022/05/03 17:07:11;;;;;;;;;;;;;;;;;;5041330;28;19909;-84
2022/05/03 17:09:58;;;;;;;;;;;;;;;;;;5041051;28;19924;-85
2022/05/03 17:12:44;;;;;;;;;;;;;;;;;;5041937;28;20324;-84
2022/05/03 17:15:31;;;;;;;;;;;;;;;;;;5041762;28;19921;-85
2022/05/03 17:18:17;;;;;;;;;;;;;;;;;;5043551;28;19921;-83
2022/05/03 17:21:05;;;;;;;;;;;;;;;;;;5060257;28;19913;-83
2022/05/03 17:23:52;;;;;;;;;;;;;;;;;;5045487;28;19913;-83
2022/05/03 17:26:39;;;;;;;;;;;;;;;;;;5049442;28;19921;-84
2022/05/03 17:29:26;;;;;;;;;;;;;;;;;;5038649;28;19915;-81
2022/05/03 17:32:13;;;;;;;;;;;;;;;;;;5042426;28;19909;-82
2022/05/03 17:34:59;;;;;;;;;;;;;;;;;;5043301;28;19931;-83
2022/05/03 17:37:46;;;;;;;;;;;;;;;;;;5048656;28;19917;-83
2022/05/03 17:40:32;;;;;;;;;;;;;;;;;;5042855;28;19910;-81
2022/05/03 17:43:19;;;;;;;;;;;;;;;;;;5042443;28;20589;-82
2022/05/03 17:46:05;;;;;;;;;;;;;;;;;;5045499;28;19912;-81
2022/05/03 17:48:52;;;;;;;;;;;;;;;;;;5046494;28;19909;-81
2022/05/03 17:55:03;;;;;;;;;;;;;;;;;;4990472;28;19917;-81
2022/05/03 17:57:50;;;;;;;;;;;;;;;;;;4981135;28;19928;-82
2022/05/03 18:00:36;;;;;;;;;;;;;;;;;;5040680;28;20387;-80
2022/05/03 18:03:24;;;;;;;;;;;;;;;;;;5038167;28;19915;-82
2022/05/03 18:06:12;;;;;;;;;;;;;;;;;;5051997;28;19916;-82
2022/05/03 18:09:02;;;;;;;;;;;;;;;;;;5048983;28;19913;-82
2022/05/03 18:11:48;;;;;;;;;;;;;;;;;;5052992;28;20369;-82
2022/05/03 18:14:35;;;;;;;;;;;;;;;;;;5040773;28;19928;-81
2022/05/03 18:17:21;;;;;;;;;;;;;;;;;;5048128;28;20351;-82
2022/05/03 18:20:08;;;;;;;;;;;;;;;;;;5050250;28;19999;-81
2022/05/03 18:22:55;;;;;;;;;;;;;;;;;;5050299;28;20373;-81
2022/05/03 18:25:42;;;;;;;;;;;;;;;;;;5052133;28;19916;-81
2022/05/03 18:28:28;;;;;;;;;;;;;;;;;;5037780;28;19909;-81
2022/05/03 18:31:14;;;;;;;;;;;;;;;;;;5047614;28;19916;-82
2022/05/03 18:34:01;;;;;;;;;;;;;;;;;;5052007;28;20005;-81
2022/05/03 18:36:47;;;;;;;;;;;;;;;;;;5044687;28;19919;-80
2022/05/03 18:39:34;;;;;;;;;;;;;;;;;;5049847;28;20483;-81
2022/05/03 18:42:23;;;;;;;;;;;;;;;;;;5050061;28;19916;-80
2022/05/03 18:45:10;;;;;;;;;;;;;;;;;;5050303;28;19913;-81
2022/05/03 18:47:57;;;;;;;;;;;;;;;;;;5038396;28;19945;-81
2022/05/03 18:50:43;;;;;;;;;;;;;;;;;;5044869;28;19928;-80
2022/05/03 18:53:30;;;;;;;;;;;;;;;;;;5048221;28;19920;-81
2022/05/03 18:56:16;;;;;;;;;;;;;;;;;;5039257;28;19916;-80
2022/05/03 18:59:03;;;;;;;;;;;;;;;;;;5060580;28;19932;-82
2022/05/03 19:01:49;;;;;;;;;;;;;;;;;;5050759;28;19912;-81
2022/05/03 19:04:36;;;;;;;;;;;;;;;;;;5045907;28;19913;-81
2022/05/03 19:07:22;;;;;;;;;;;;;;;;;;5028489;28;19932;-81
2022/05/03 19:10:09;;;;;;;;;;;;;;;;;;5035836;28;19909;-82
2022/05/03 19:12:57;;;;;;;;;;;;;;;;;;5037552;28;19913;-82
2022/05/03 19:15:43;;;;;;;;;;;;;;;;;;5046914;28;19908;-81
2022/05/03 19:18:30;;;;;;;;;;;;;;;;;;5043242;28;19927;-81
2022/05/03 19:21:16;;;;;;;;;;;;;;;;;;5059652;28;19909;-81
2022/05/03 19:30:32;;;;;;;;;;;;;;;;;;5033024;28;19952;-81
2022/05/03 19:33:18;;;;;;;;;;;;;;;;;;5038586;28;19931;-81
2022/05/03 19:36:05;;;;;;;;;;;;;;;;;;5043015;28;19913;-79
2022/05/03 19:38:52;;;;;;;;;;;;;;;;;;5048950;28;19939;-80
2022/05/03 19:41:39;;;;;;;;;;;;;;;;;;5049978;28;19937;-80
2022/05/03 19:44:25;;;;;;;;;;;;;;;;;;5035752;28;19931;-81
2022/05/03 19:47:13;;;;;;;;;;;;;;;;;;5037582;28;19913;-79
2022/05/03 19:49:59;;;;;;;;;;;;;;;;;;5059918;28;19919;-79
2022/05/03 19:52:53;;;;;;;;;;;;;;;;;;5050213;28;19913;-79
2022/05/03 19:55:40;;;;;;;;;;;;;;;;;;5047050;28;19924;-78
2022/05/03 19:58:26;;;;;;;;;;;;;;;;;;5037492;28;19921;-80
2022/05/03 20:01:13;;;;;;;;;;;;;;;;;;5032914;28;19916;-80
2022/05/03 20:03:59;;;;;;;;;;;;;;;;;;5050817;28;19940;-80
2022/05/03 20:06:46;;;;;;;;;;;;;;;;;;5049092;28;19917;-84
2022/05/03 20:09:32;;;;;;;;;;;;;;;;;;5026673;28;20016;-84
2022/05/03 20:12:19;;;;;;;;;;;;;;;;;;5033095;28;20416;-85
2022/05/03 20:15:05;;;;;;;;;;;;;;;;;;5036205;28;20297;-84
2022/05/03 20:17:52;;;;;;;;;;;;;;;;;;5033679;28;19927;-85